sensor_id;sensor_type;location;lat;lon;timestamp;P1;durP1;ratioP1;P2;durP2;ratioP2
41446;SDS011;27185;52.040;4.490;2024-01-11T00:00:11;22.33;;;8.43;;
41446;SDS011;27185;52.040;4.490;2024-01-11T00:02:57;24.38;;;9.77;;
41446;SDS011;27185;52.040;4.490;2024-01-11T00:05:42;20.55;;;10.63;;
41446;SDS011;27185;52.040;4.490;2024-01-11T00:08:28;15.88;;;8.68;;
41446;SDS011;27185;52.040;4.490;2024-01-11T00:11:14;20.08;;;9.35;;
41446;SDS011;27185;52.040;4.490;2024-01-11T00:13:59;21.08;;;8.90;;
41446;SDS011;27185;52.040;4.490;2024-01-11T00:16:45;18.00;;;9.07;;
41446;SDS011;27185;52.040;4.490;2024-01-11T00:19:31;17.00;;;8.75;;
41446;SDS011;27185;52.040;4.490;2024-01-11T00:22:17;15.32;;;8.32;;
41446;SDS011;27185;52.040;4.490;2024-01-11T00:25:03;14.07;;;8.48;;
41446;SDS011;27185;52.040;4.490;2024-01-11T00:27:49;16.55;;;8.30;;
41446;SDS011;27185;52.040;4.490;2024-01-11T00:30:34;18.15;;;9.98;;
41446;SDS011;27185;52.040;4.490;2024-01-11T00:33:20;16.73;;;8.90;;
41446;SDS011;27185;52.040;4.490;2024-01-11T00:36:06;19.92;;;9.73;;
41446;SDS011;27185;52.040;4.490;2024-01-11T00:41:40;19.38;;;9.23;;
41446;SDS011;27185;52.040;4.490;2024-01-11T00:44:25;18.13;;;7.85;;
41446;SDS011;27185;52.040;4.490;2024-01-11T00:47:11;24.80;;;11.82;;
41446;SDS011;27185;52.040;4.490;2024-01-11T00:49:57;20.73;;;9.65;;
41446;SDS011;27185;52.040;4.490;2024-01-11T00:52:42;24.48;;;9.90;;
41446;SDS011;27185;52.040;4.490;2024-01-11T00:55:32;21.25;;;11.10;;
41446;SDS011;27185;52.040;4.490;2024-01-11T00:58:17;21.52;;;10.00;;
41446;SDS011;27185;52.040;4.490;2024-01-11T01:01:05;21.50;;;9.95;;
41446;SDS011;27185;52.040;4.490;2024-01-11T01:03:54;18.08;;;9.43;;
41446;SDS011;27185;52.040;4.490;2024-01-11T01:06:40;21.25;;;10.50;;
41446;SDS011;27185;52.040;4.490;2024-01-11T01:09:26;20.30;;;10.30;;
41446;SDS011;27185;52.040;4.490;2024-01-11T01:12:12;19.80;;;9.80;;
41446;SDS011;27185;52.040;4.490;2024-01-11T01:14:57;25.67;;;10.55;;
41446;SDS011;27185;52.040;4.490;2024-01-11T01:17:43;19.30;;;10.55;;
41446;SDS011;27185;52.040;4.490;2024-01-11T01:20:28;19.58;;;9.80;;
41446;SDS011;27185;52.040;4.490;2024-01-11T01:23:14;19.35;;;10.23;;
41446;SDS011;27185;52.040;4.490;2024-01-11T01:26:00;17.35;;;9.57;;
41446;SDS011;27185;52.040;4.490;2024-01-11T01:28:46;22.35;;;10.73;;
41446;SDS011;27185;52.040;4.490;2024-01-11T01:31:31;24.52;;;11.15;;
41446;SDS011;27185;52.040;4.490;2024-01-11T01:34:22;23.10;;;10.35;;
41446;SDS011;27185;52.040;4.490;2024-01-11T01:37:07;25.30;;;10.40;;
41446;SDS011;27185;52.040;4.490;2024-01-11T01:39:53;21.00;;;10.38;;
41446;SDS011;27185;52.040;4.490;2024-01-11T01:42:45;21.75;;;10.35;;
41446;SDS011;27185;52.040;4.490;2024-01-11T01:45:31;20.83;;;9.88;;
41446;SDS011;27185;52.040;4.490;2024-01-11T01:48:17;23.83;;;10.90;;
41446;SDS011;27185;52.040;4.490;2024-01-11T01:51:03;24.42;;;11.95;;
41446;SDS011;27185;52.040;4.490;2024-01-11T01:53:50;22.92;;;10.27;;
41446;SDS011;27185;52.040;4.490;2024-01-11T01:56:37;27.92;;;10.75;;
41446;SDS011;27185;52.040;4.490;2024-01-11T01:59:24;24.27;;;11.60;;
41446;SDS011;27185;52.040;4.490;2024-01-11T02:02:11;18.42;;;9.80;;
41446;SDS011;27185;52.040;4.490;2024-01-11T02:04:57;21.02;;;10.57;;
41446;SDS011;27185;52.040;4.490;2024-01-11T02:07:43;25.48;;;11.10;;
41446;SDS011;27185;52.040;4.490;2024-01-11T02:10:30;24.25;;;10.80;;
41446;SDS011;27185;52.040;4.490;2024-01-11T02:13:18;23.45;;;10.43;;
41446;SDS011;27185;52.040;4.490;2024-01-11T02:16:04;21.10;;;10.35;;
41446;SDS011;27185;52.040;4.490;2024-01-11T02:18:50;21.80;;;10.05;;
41446;SDS011;27185;52.040;4.490;2024-01-11T02:21:36;20.20;;;10.10;;
41446;SDS011;27185;52.040;4.490;2024-01-11T02:24:22;23.58;;;11.43;;
41446;SDS011;27185;52.040;4.490;2024-01-11T02:27:07;20.63;;;10.73;;
41446;SDS011;27185;52.040;4.490;2024-01-11T02:29:55;17.08;;;9.70;;
41446;SDS011;27185;52.040;4.490;2024-01-11T02:32:43;23.20;;;10.75;;
41446;SDS011;27185;52.040;4.490;2024-01-11T02:35:31;26.15;;;11.18;;
41446;SDS011;27185;52.040;4.490;2024-01-11T02:38:17;22.02;;;10.20;;
41446;SDS011;27185;52.040;4.490;2024-01-11T02:41:03;23.52;;;10.80;;
41446;SDS011;27185;52.040;4.490;2024-01-11T02:43:50;23.13;;;10.90;;
41446;SDS011;27185;52.040;4.490;2024-01-11T02:46:37;23.70;;;12.13;;
41446;SDS011;27185;52.040;4.490;2024-01-11T02:49:23;26.60;;;11.98;;
41446;SDS011;27185;52.040;4.490;2024-01-11T02:52:08;26.25;;;12.02;;
41446;SDS011;27185;52.040;4.490;2024-01-11T02:54:54;26.45;;;12.80;;
41446;SDS011;27185;52.040;4.490;2024-01-11T02:57:39;24.52;;;12.60;;
41446;SDS011;27185;52.040;4.490;2024-01-11T03:00:25;23.48;;;11.30;;
41446;SDS011;27185;52.040;4.490;2024-01-11T03:03:11;29.75;;;13.77;;
41446;SDS011;27185;52.040;4.490;2024-01-11T03:05:56;19.67;;;10.43;;
41446;SDS011;27185;52.040;4.490;2024-01-11T03:08:42;23.05;;;11.65;;
41446;SDS011;27185;52.040;4.490;2024-01-11T03:11:27;23.42;;;10.68;;
41446;SDS011;27185;52.040;4.490;2024-01-11T03:14:13;20.38;;;11.18;;
41446;SDS011;27185;52.040;4.490;2024-01-11T03:16:59;21.45;;;10.63;;
41446;SDS011;27185;52.040;4.490;2024-01-11T03:19:44;20.90;;;10.80;;
41446;SDS011;27185;52.040;4.490;2024-01-11T03:22:30;21.80;;;11.20;;
41446;SDS011;27185;52.040;4.490;2024-01-11T03:25:18;27.15;;;12.02;;
41446;SDS011;27185;52.040;4.490;2024-01-11T03:28:04;20.70;;;10.25;;
41446;SDS011;27185;52.040;4.490;2024-01-11T03:30:49;25.63;;;11.23;;
41446;SDS011;27185;52.040;4.490;2024-01-11T03:33:35;25.45;;;12.65;;
41446;SDS011;27185;52.040;4.490;2024-01-11T03:36:24;22.25;;;12.30;;
41446;SDS011;27185;52.040;4.490;2024-01-11T03:39:10;25.70;;;11.65;;
41446;SDS011;27185;52.040;4.490;2024-01-11T03:41:56;30.92;;;13.43;;
41446;SDS011;27185;52.040;4.490;2024-01-11T03:44:41;26.58;;;13.15;;
41446;SDS011;27185;52.040;4.490;2024-01-11T03:47:27;26.50;;;13.23;;
41446;SDS011;27185;52.040;4.490;2024-01-11T03:50:13;29.63;;;14.05;;
41446;SDS011;27185;52.040;4.490;2024-01-11T03:52:58;30.83;;;14.00;;
41446;SDS011;27185;52.040;4.490;2024-01-11T03:55:44;30.27;;;14.65;;
41446;SDS011;27185;52.040;4.490;2024-01-11T03:58:30;28.30;;;13.93;;
41446;SDS011;27185;52.040;4.490;2024-01-11T04:01:15;32.80;;;14.82;;
41446;SDS011;27185;52.040;4.490;2024-01-11T04:04:01;27.55;;;13.55;;
41446;SDS011;27185;52.040;4.490;2024-01-11T04:06:47;26.92;;;12.88;;
41446;SDS011;27185;52.040;4.490;2024-01-11T04:09:33;26.58;;;14.13;;
41446;SDS011;27185;52.040;4.490;2024-01-11T04:12:18;26.85;;;12.98;;
41446;SDS011;27185;52.040;4.490;2024-01-11T04:15:04;26.50;;;13.05;;
41446;SDS011;27185;52.040;4.490;2024-01-11T04:17:50;29.02;;;14.02;;
41446;SDS011;27185;52.040;4.490;2024-01-11T04:20:35;25.33;;;13.18;;
41446;SDS011;27185;52.040;4.490;2024-01-11T04:23:21;25.00;;;12.95;;
41446;SDS011;27185;52.040;4.490;2024-01-11T04:26:06;25.55;;;12.68;;
41446;SDS011;27185;52.040;4.490;2024-01-11T04:28:53;27.02;;;13.82;;
41446;SDS011;27185;52.040;4.490;2024-01-11T04:31:38;27.70;;;12.85;;
41446;SDS011;27185;52.040;4.490;2024-01-11T04:34:24;28.17;;;14.82;;
41446;SDS011;27185;52.040;4.490;2024-01-11T04:37:09;26.67;;;14.55;;
41446;SDS011;27185;52.040;4.490;2024-01-11T04:39:55;31.70;;;15.05;;
41446;SDS011;27185;52.040;4.490;2024-01-11T04:42:44;25.33;;;13.50;;
41446;SDS011;27185;52.040;4.490;2024-01-11T04:45:30;25.30;;;14.35;;
41446;SDS011;27185;52.040;4.490;2024-01-11T04:48:15;31.73;;;16.00;;
41446;SDS011;27185;52.040;4.490;2024-01-11T04:51:01;29.00;;;14.65;;
41446;SDS011;27185;52.040;4.490;2024-01-11T04:53:47;27.92;;;14.95;;
41446;SDS011;27185;52.040;4.490;2024-01-11T04:56:32;28.02;;;13.90;;
41446;SDS011;27185;52.040;4.490;2024-01-11T04:59:18;31.38;;;15.50;;
41446;SDS011;27185;52.040;4.490;2024-01-11T05:02:03;47.05;;;16.98;;
41446;SDS011;27185;52.040;4.490;2024-01-11T05:04:49;29.70;;;15.60;;
41446;SDS011;27185;52.040;4.490;2024-01-11T05:07:35;27.50;;;14.63;;
41446;SDS011;27185;52.040;4.490;2024-01-11T05:10:20;32.05;;;15.25;;
41446;SDS011;27185;52.040;4.490;2024-01-11T05:13:06;35.80;;;16.25;;
41446;SDS011;27185;52.040;4.490;2024-01-11T05:15:51;30.83;;;14.55;;
41446;SDS011;27185;52.040;4.490;2024-01-11T05:18:37;28.77;;;13.75;;
41446;SDS011;27185;52.040;4.490;2024-01-11T05:21:23;28.75;;;14.07;;
41446;SDS011;27185;52.040;4.490;2024-01-11T05:24:09;30.77;;;15.00;;
41446;SDS011;27185;52.040;4.490;2024-01-11T05:26:54;31.25;;;15.70;;
41446;SDS011;27185;52.040;4.490;2024-01-11T05:29:40;29.65;;;15.20;;
41446;SDS011;27185;52.040;4.490;2024-01-11T05:32:26;33.42;;;15.98;;
41446;SDS011;27185;52.040;4.490;2024-01-11T05:35:11;26.88;;;14.23;;
41446;SDS011;27185;52.040;4.490;2024-01-11T05:37:57;28.95;;;14.63;;
41446;SDS011;27185;52.040;4.490;2024-01-11T05:40:43;30.70;;;15.98;;
41446;SDS011;27185;52.040;4.490;2024-01-11T05:43:28;34.13;;;16.00;;
41446;SDS011;27185;52.040;4.490;2024-01-11T05:46:14;29.08;;;15.40;;
41446;SDS011;27185;52.040;4.490;2024-01-11T05:49:00;31.17;;;15.23;;
41446;SDS011;27185;52.040;4.490;2024-01-11T05:51:45;31.30;;;16.05;;
41446;SDS011;27185;52.040;4.490;2024-01-11T05:54:31;33.70;;;15.95;;
41446;SDS011;27185;52.040;4.490;2024-01-11T05:57:17;30.80;;;15.90;;
41446;SDS011;27185;52.040;4.490;2024-01-11T06:00:03;32.50;;;16.02;;
41446;SDS011;27185;52.040;4.490;2024-01-11T06:02:50;35.73;;;16.93;;
41446;SDS011;27185;52.040;4.490;2024-01-11T06:05:35;31.23;;;15.77;;
41446;SDS011;27185;52.040;4.490;2024-01-11T06:08:21;38.47;;;18.05;;
41446;SDS011;27185;52.040;4.490;2024-01-11T06:11:06;35.58;;;17.98;;
41446;SDS011;27185;52.040;4.490;2024-01-11T06:13:52;37.45;;;17.85;;
41446;SDS011;27185;52.040;4.490;2024-01-11T06:16:38;36.65;;;17.40;;
41446;SDS011;27185;52.040;4.490;2024-01-11T06:19:26;40.15;;;17.50;;
41446;SDS011;27185;52.040;4.490;2024-01-11T06:22:11;39.55;;;18.40;;
41446;SDS011;27185;52.040;4.490;2024-01-11T06:24:57;40.97;;;18.75;;
41446;SDS011;27185;52.040;4.490;2024-01-11T06:27:45;38.93;;;18.97;;
41446;SDS011;27185;52.040;4.490;2024-01-11T06:30:31;35.15;;;17.55;;
41446;SDS011;27185;52.040;4.490;2024-01-11T06:33:17;41.20;;;19.17;;
41446;SDS011;27185;52.040;4.490;2024-01-11T06:36:04;46.85;;;21.00;;
41446;SDS011;27185;52.040;4.490;2024-01-11T06:41:37;40.45;;;19.55;;
41446;SDS011;27185;52.040;4.490;2024-01-11T06:44:22;48.72;;;23.35;;
41446;SDS011;27185;52.040;4.490;2024-01-11T06:47:08;50.30;;;22.83;;
41446;SDS011;27185;52.040;4.490;2024-01-11T06:49:53;49.22;;;23.30;;
41446;SDS011;27185;52.040;4.490;2024-01-11T06:52:39;51.58;;;23.02;;
41446;SDS011;27185;52.040;4.490;2024-01-11T06:55:25;49.25;;;24.05;;
41446;SDS011;27185;52.040;4.490;2024-01-11T06:58:10;57.92;;;27.00;;
41446;SDS011;27185;52.040;4.490;2024-01-11T07:00:56;59.40;;;26.80;;
41446;SDS011;27185;52.040;4.490;2024-01-11T07:03:41;56.55;;;27.60;;
41446;SDS011;27185;52.040;4.490;2024-01-11T07:06:27;55.53;;;26.88;;
41446;SDS011;27185;52.040;4.490;2024-01-11T07:09:13;55.88;;;26.85;;
41446;SDS011;27185;52.040;4.490;2024-01-11T07:11:59;52.78;;;25.85;;
41446;SDS011;27185;52.040;4.490;2024-01-11T07:14:46;65.03;;;28.55;;
41446;SDS011;27185;52.040;4.490;2024-01-11T07:17:31;57.30;;;27.58;;
41446;SDS011;27185;52.040;4.490;2024-01-11T07:20:17;52.30;;;25.88;;
41446;SDS011;27185;52.040;4.490;2024-01-11T07:23:03;56.78;;;26.95;;
41446;SDS011;27185;52.040;4.490;2024-01-11T07:25:49;54.65;;;28.08;;
41446;SDS011;27185;52.040;4.490;2024-01-11T07:28:35;56.58;;;26.10;;
41446;SDS011;27185;52.040;4.490;2024-01-11T07:31:21;49.17;;;24.40;;
41446;SDS011;27185;52.040;4.490;2024-01-11T07:34:07;55.42;;;28.17;;
41446;SDS011;27185;52.040;4.490;2024-01-11T07:36:53;45.78;;;23.38;;
41446;SDS011;27185;52.040;4.490;2024-01-11T07:39:39;52.15;;;25.48;;
41446;SDS011;27185;52.040;4.490;2024-01-11T07:42:24;51.15;;;25.77;;
41446;SDS011;27185;52.040;4.490;2024-01-11T07:45:10;47.35;;;23.33;;
41446;SDS011;27185;52.040;4.490;2024-01-11T07:47:56;44.90;;;23.63;;
41446;SDS011;27185;52.040;4.490;2024-01-11T07:50:41;48.33;;;23.27;;
41446;SDS011;27185;52.040;4.490;2024-01-11T07:53:27;46.95;;;23.08;;
41446;SDS011;27185;52.040;4.490;2024-01-11T07:56:13;48.10;;;24.52;;
41446;SDS011;27185;52.040;4.490;2024-01-11T07:58:59;45.67;;;23.23;;
41446;SDS011;27185;52.040;4.490;2024-01-11T08:01:44;45.85;;;22.33;;
41446;SDS011;27185;52.040;4.490;2024-01-11T08:04:39;45.42;;;22.75;;
41446;SDS011;27185;52.040;4.490;2024-01-11T08:07:25;46.70;;;22.80;;
41446;SDS011;27185;52.040;4.490;2024-01-11T08:10:11;45.08;;;22.98;;
41446;SDS011;27185;52.040;4.490;2024-01-11T08:12:57;47.22;;;23.98;;
41446;SDS011;27185;52.040;4.490;2024-01-11T08:15:44;47.88;;;23.73;;
41446;SDS011;27185;52.040;4.490;2024-01-11T08:18:30;50.72;;;24.80;;
41446;SDS011;27185;52.040;4.490;2024-01-11T08:21:16;51.38;;;25.50;;
41446;SDS011;27185;52.040;4.490;2024-01-11T08:24:01;49.03;;;24.23;;
41446;SDS011;27185;52.040;4.490;2024-01-11T08:26:47;55.25;;;25.17;;
41446;SDS011;27185;52.040;4.490;2024-01-11T08:29:33;50.80;;;25.02;;
41446;SDS011;27185;52.040;4.490;2024-01-11T08:32:19;53.20;;;27.23;;
41446;SDS011;27185;52.040;4.490;2024-01-11T08:35:05;51.20;;;25.33;;
41446;SDS011;27185;52.040;4.490;2024-01-11T08:37:51;47.92;;;24.88;;
41446;SDS011;27185;52.040;4.490;2024-01-11T08:40:37;50.85;;;26.30;;
41446;SDS011;27185;52.040;4.490;2024-01-11T08:43:23;48.63;;;25.08;;
41446;SDS011;27185;52.040;4.490;2024-01-11T08:46:08;50.72;;;26.10;;
41446;SDS011;27185;52.040;4.490;2024-01-11T08:48:54;51.78;;;25.45;;
41446;SDS011;27185;52.040;4.490;2024-01-11T08:51:41;56.22;;;27.00;;
41446;SDS011;27185;52.040;4.490;2024-01-11T08:54:33;52.65;;;25.75;;
41446;SDS011;27185;52.040;4.490;2024-01-11T08:57:18;53.20;;;25.80;;
41446;SDS011;27185;52.040;4.490;2024-01-11T09:00:04;58.30;;;27.52;;
41446;SDS011;27185;52.040;4.490;2024-01-11T09:02:53;60.78;;;29.10;;
41446;SDS011;27185;52.040;4.490;2024-01-11T09:05:39;63.67;;;29.52;;
41446;SDS011;27185;52.040;4.490;2024-01-11T09:08:24;61.15;;;30.83;;
41446;SDS011;27185;52.040;4.490;2024-01-11T09:11:10;66.65;;;31.38;;
41446;SDS011;27185;52.040;4.490;2024-01-11T09:13:56;61.45;;;31.10;;
41446;SDS011;27185;52.040;4.490;2024-01-11T09:16:42;64.05;;;32.90;;
41446;SDS011;27185;52.040;4.490;2024-01-11T09:19:30;71.38;;;36.28;;
41446;SDS011;27185;52.040;4.490;2024-01-11T09:22:16;73.15;;;34.97;;
41446;SDS011;27185;52.040;4.490;2024-01-11T09:25:01;67.70;;;33.60;;
41446;SDS011;27185;52.040;4.490;2024-01-11T09:27:47;62.17;;;32.00;;
41446;SDS011;27185;52.040;4.490;2024-01-11T09:30:32;56.30;;;28.30;;
41446;SDS011;27185;52.040;4.490;2024-01-11T09:33:19;64.07;;;32.30;;
41446;SDS011;27185;52.040;4.490;2024-01-11T09:36:05;65.18;;;33.10;;
41446;SDS011;27185;52.040;4.490;2024-01-11T09:38:52;66.70;;;33.53;;
41446;SDS011;27185;52.040;4.490;2024-01-11T09:41:38;64.07;;;31.77;;
41446;SDS011;27185;52.040;4.490;2024-01-11T09:44:30;64.57;;;33.00;;
41446;SDS011;27185;52.040;4.490;2024-01-11T09:47:16;66.90;;;30.92;;
41446;SDS011;27185;52.040;4.490;2024-01-11T09:50:02;63.42;;;31.73;;
41446;SDS011;27185;52.040;4.490;2024-01-11T09:52:49;58.97;;;31.40;;
41446;SDS011;27185;52.040;4.490;2024-01-11T09:55:35;59.85;;;30.05;;
41446;SDS011;27185;52.040;4.490;2024-01-11T09:58:21;65.22;;;33.35;;
41446;SDS011;27185;52.040;4.490;2024-01-11T10:01:09;59.47;;;30.92;;
41446;SDS011;27185;52.040;4.490;2024-01-11T10:03:58;58.63;;;31.98;;
41446;SDS011;27185;52.040;4.490;2024-01-11T10:06:44;62.05;;;31.02;;
41446;SDS011;27185;52.040;4.490;2024-01-11T10:09:30;61.05;;;32.40;;
41446;SDS011;27185;52.040;4.490;2024-01-11T10:12:18;51.47;;;28.80;;
41446;SDS011;27185;52.040;4.490;2024-01-11T10:15:08;55.20;;;29.80;;
41446;SDS011;27185;52.040;4.490;2024-01-11T10:17:55;67.53;;;31.95;;
41446;SDS011;27185;52.040;4.490;2024-01-11T10:20:41;55.90;;;28.85;;
41446;SDS011;27185;52.040;4.490;2024-01-11T10:23:26;53.42;;;29.15;;
41446;SDS011;27185;52.040;4.490;2024-01-11T10:26:17;56.08;;;29.75;;
41446;SDS011;27185;52.040;4.490;2024-01-11T10:29:04;52.88;;;27.27;;
41446;SDS011;27185;52.040;4.490;2024-01-11T10:31:55;51.45;;;27.33;;
41446;SDS011;27185;52.040;4.490;2024-01-11T10:34:41;53.65;;;29.17;;
41446;SDS011;27185;52.040;4.490;2024-01-11T10:37:27;43.97;;;23.75;;
41446;SDS011;27185;52.040;4.490;2024-01-11T10:40:15;47.78;;;25.73;;
41446;SDS011;27185;52.040;4.490;2024-01-11T10:43:02;42.60;;;24.08;;
41446;SDS011;27185;52.040;4.490;2024-01-11T10:45:51;48.10;;;25.83;;
41446;SDS011;27185;52.040;4.490;2024-01-11T10:51:28;43.70;;;23.70;;
41446;SDS011;27185;52.040;4.490;2024-01-11T10:54:17;40.92;;;23.02;;
41446;SDS011;27185;52.040;4.490;2024-01-11T10:57:05;41.13;;;22.25;;
41446;SDS011;27185;52.040;4.490;2024-01-11T10:59:52;37.85;;;21.08;;
41446;SDS011;27185;52.040;4.490;2024-01-11T11:02:39;41.63;;;23.05;;
41446;SDS011;27185;52.040;4.490;2024-01-11T11:05:26;38.28;;;21.75;;
41446;SDS011;27185;52.040;4.490;2024-01-11T11:08:13;40.85;;;21.95;;
41446;SDS011;27185;52.040;4.490;2024-01-11T11:11:01;36.63;;;21.25;;
41446;SDS011;27185;52.040;4.490;2024-01-11T11:13:50;44.78;;;22.85;;
41446;SDS011;27185;52.040;4.490;2024-01-11T11:16:37;45.33;;;24.35;;
41446;SDS011;27185;52.040;4.490;2024-01-11T11:19:22;36.88;;;21.98;;
41446;SDS011;27185;52.040;4.490;2024-01-11T11:22:08;39.33;;;22.23;;
41446;SDS011;27185;52.040;4.490;2024-01-11T11:25:03;38.25;;;22.05;;
41446;SDS011;27185;52.040;4.490;2024-01-11T11:27:53;37.95;;;22.40;;
41446;SDS011;27185;52.040;4.490;2024-01-11T11:30:40;37.85;;;21.23;;
41446;SDS011;27185;52.040;4.490;2024-01-11T11:33:26;32.65;;;18.58;;
41446;SDS011;27185;52.040;4.490;2024-01-11T11:36:12;30.02;;;17.80;;
41446;SDS011;27185;52.040;4.490;2024-01-11T11:38:59;37.10;;;19.42;;
41446;SDS011;27185;52.040;4.490;2024-01-11T11:41:46;30.05;;;18.77;;
41446;SDS011;27185;52.040;4.490;2024-01-11T11:47:23;35.45;;;19.50;;
41446;SDS011;27185;52.040;4.490;2024-01-11T11:50:09;30.15;;;18.98;;
41446;SDS011;27185;52.040;4.490;2024-01-11T11:52:56;30.55;;;17.92;;
41446;SDS011;27185;52.040;4.490;2024-01-11T11:55:42;33.92;;;19.55;;
41446;SDS011;27185;52.040;4.490;2024-01-11T11:58:29;31.42;;;17.85;;
41446;SDS011;27185;52.040;4.490;2024-01-11T12:01:16;27.48;;;16.85;;
41446;SDS011;27185;52.040;4.490;2024-01-11T12:04:02;26.85;;;15.57;;
41446;SDS011;27185;52.040;4.490;2024-01-11T12:06:48;29.45;;;16.23;;
41446;SDS011;27185;52.040;4.490;2024-01-11T12:09:33;27.15;;;16.92;;
41446;SDS011;27185;52.040;4.490;2024-01-11T12:12:19;30.98;;;17.98;;
41446;SDS011;27185;52.040;4.490;2024-01-11T12:15:06;29.95;;;18.90;;
41446;SDS011;27185;52.040;4.490;2024-01-11T12:17:59;28.73;;;17.30;;
41446;SDS011;27185;52.040;4.490;2024-01-11T12:20:45;30.20;;;16.75;;
41446;SDS011;27185;52.040;4.490;2024-01-11T12:23:31;27.85;;;16.27;;
41446;SDS011;27185;52.040;4.490;2024-01-11T12:26:19;26.85;;;15.77;;
41446;SDS011;27185;52.040;4.490;2024-01-11T12:29:07;26.45;;;16.65;;
41446;SDS011;27185;52.040;4.490;2024-01-11T12:31:54;27.48;;;15.45;;
41446;SDS011;27185;52.040;4.490;2024-01-11T12:34:43;21.65;;;13.10;;
41446;SDS011;27185;52.040;4.490;2024-01-11T12:37:30;22.55;;;13.95;;
41446;SDS011;27185;52.040;4.490;2024-01-11T12:40:16;24.45;;;14.98;;
41446;SDS011;27185;52.040;4.490;2024-01-11T12:43:01;24.27;;;14.73;;
41446;SDS011;27185;52.040;4.490;2024-01-11T12:45:47;23.25;;;14.48;;
41446;SDS011;27185;52.040;4.490;2024-01-11T12:48:33;25.88;;;14.70;;
41446;SDS011;27185;52.040;4.490;2024-01-11T12:51:19;21.38;;;13.27;;
41446;SDS011;27185;52.040;4.490;2024-01-11T12:54:05;22.25;;;13.68;;
41446;SDS011;27185;52.040;4.490;2024-01-11T12:56:57;22.60;;;14.07;;
41446;SDS011;27185;52.040;4.490;2024-01-11T12:59:43;23.42;;;14.18;;
41446;SDS011;27185;52.040;4.490;2024-01-11T13:02:28;22.92;;;14.13;;
41446;SDS011;27185;52.040;4.490;2024-01-11T13:05:16;23.27;;;14.23;;
41446;SDS011;27185;52.040;4.490;2024-01-11T13:08:02;24.30;;;14.52;;
41446;SDS011;27185;52.040;4.490;2024-01-11T13:10:50;24.27;;;14.85;;
41446;SDS011;27185;52.040;4.490;2024-01-11T13:13:36;23.75;;;12.52;;
41446;SDS011;27185;52.040;4.490;2024-01-11T13:16:22;21.15;;;13.00;;
41446;SDS011;27185;52.040;4.490;2024-01-11T13:19:11;20.30;;;13.00;;
41446;SDS011;27185;52.040;4.490;2024-01-11T13:21:57;22.85;;;12.88;;
41446;SDS011;27185;52.040;4.490;2024-01-11T13:24:42;20.95;;;13.30;;
41446;SDS011;27185;52.040;4.490;2024-01-11T13:27:28;20.33;;;12.18;;
41446;SDS011;27185;52.040;4.490;2024-01-11T13:30:13;22.40;;;13.48;;
41446;SDS011;27185;52.040;4.490;2024-01-11T13:32:59;21.65;;;13.05;;
41446;SDS011;27185;52.040;4.490;2024-01-11T13:35:45;23.10;;;14.15;;
41446;SDS011;27185;52.040;4.490;2024-01-11T13:38:30;24.08;;;14.75;;
41446;SDS011;27185;52.040;4.490;2024-01-11T13:41:21;23.15;;;15.30;;
41446;SDS011;27185;52.040;4.490;2024-01-11T13:44:07;26.65;;;14.23;;
41446;SDS011;27185;52.040;4.490;2024-01-11T13:46:54;23.88;;;12.93;;
41446;SDS011;27185;52.040;4.490;2024-01-11T13:49:40;20.15;;;12.02;;
41446;SDS011;27185;52.040;4.490;2024-01-11T13:52:25;27.98;;;14.23;;
41446;SDS011;27185;52.040;4.490;2024-01-11T13:55:11;23.17;;;14.05;;
41446;SDS011;27185;52.040;4.490;2024-01-11T13:57:58;21.48;;;14.52;;
41446;SDS011;27185;52.040;4.490;2024-01-11T14:00:44;19.88;;;13.60;;
41446;SDS011;27185;52.040;4.490;2024-01-11T14:03:29;20.70;;;13.57;;
41446;SDS011;27185;52.040;4.490;2024-01-11T14:06:15;24.17;;;14.32;;
41446;SDS011;27185;52.040;4.490;2024-01-11T14:09:01;21.05;;;13.75;;
41446;SDS011;27185;52.040;4.490;2024-01-11T14:11:49;24.08;;;15.15;;
41446;SDS011;27185;52.040;4.490;2024-01-11T14:14:35;26.80;;;15.55;;
41446;SDS011;27185;52.040;4.490;2024-01-11T14:17:21;22.83;;;13.40;;
41446;SDS011;27185;52.040;4.490;2024-01-11T14:20:07;20.95;;;13.52;;
41446;SDS011;27185;52.040;4.490;2024-01-11T14:22:58;25.20;;;15.77;;
41446;SDS011;27185;52.040;4.490;2024-01-11T14:25:43;22.77;;;14.18;;
41446;SDS011;27185;52.040;4.490;2024-01-11T14:28:29;20.77;;;14.45;;
41446;SDS011;27185;52.040;4.490;2024-01-11T14:31:15;23.85;;;15.23;;
41446;SDS011;27185;52.040;4.490;2024-01-11T14:34:01;25.45;;;15.55;;
41446;SDS011;27185;52.040;4.490;2024-01-11T14:36:46;24.42;;;15.02;;
41446;SDS011;27185;52.040;4.490;2024-01-11T14:39:32;22.15;;;13.65;;
41446;SDS011;27185;52.040;4.490;2024-01-11T14:42:18;24.23;;;14.30;;
41446;SDS011;27185;52.040;4.490;2024-01-11T14:45:04;20.90;;;14.00;;
41446;SDS011;27185;52.040;4.490;2024-01-11T14:47:50;21.35;;;13.90;;
41446;SDS011;27185;52.040;4.490;2024-01-11T14:50:36;23.33;;;14.90;;
41446;SDS011;27185;52.040;4.490;2024-01-11T14:53:21;23.58;;;14.60;;
41446;SDS011;27185;52.040;4.490;2024-01-11T14:56:07;22.30;;;15.27;;
41446;SDS011;27185;52.040;4.490;2024-01-11T14:58:52;25.05;;;15.23;;
41446;SDS011;27185;52.040;4.490;2024-01-11T15:01:39;25.27;;;15.02;;
41446;SDS011;27185;52.040;4.490;2024-01-11T15:04:24;26.95;;;15.32;;
41446;SDS011;27185;52.040;4.490;2024-01-11T15:07:10;22.55;;;13.80;;
41446;SDS011;27185;52.040;4.490;2024-01-11T15:09:57;24.15;;;14.18;;
41446;SDS011;27185;52.040;4.490;2024-01-11T15:12:43;23.08;;;14.48;;
41446;SDS011;27185;52.040;4.490;2024-01-11T15:15:29;21.70;;;14.25;;
41446;SDS011;27185;52.040;4.490;2024-01-11T15:18:15;23.17;;;13.60;;
41446;SDS011;27185;52.040;4.490;2024-01-11T15:21:00;25.20;;;14.95;;
41446;SDS011;27185;52.040;4.490;2024-01-11T15:23:46;27.23;;;16.00;;
41446;SDS011;27185;52.040;4.490;2024-01-11T15:26:32;23.75;;;14.63;;
41446;SDS011;27185;52.040;4.490;2024-01-11T15:29:18;22.52;;;14.07;;
41446;SDS011;27185;52.040;4.490;2024-01-11T15:32:03;25.67;;;16.25;;
41446;SDS011;27185;52.040;4.490;2024-01-11T15:34:49;31.63;;;14.65;;
41446;SDS011;27185;52.040;4.490;2024-01-11T15:37:35;25.13;;;15.38;;
41446;SDS011;27185;52.040;4.490;2024-01-11T15:40:21;26.73;;;14.80;;
41446;SDS011;27185;52.040;4.490;2024-01-11T15:43:07;25.08;;;16.02;;
41446;SDS011;27185;52.040;4.490;2024-01-11T15:45:52;28.92;;;16.00;;
41446;SDS011;27185;52.040;4.490;2024-01-11T15:48:38;24.35;;;14.63;;
41446;SDS011;27185;52.040;4.490;2024-01-11T15:51:24;23.52;;;14.85;;
41446;SDS011;27185;52.040;4.490;2024-01-11T15:54:10;27.35;;;15.50;;
41446;SDS011;27185;52.040;4.490;2024-01-11T15:56:55;23.77;;;14.27;;
41446;SDS011;27185;52.040;4.490;2024-01-11T15:59:42;20.90;;;12.45;;
41446;SDS011;27185;52.040;4.490;2024-01-11T16:02:28;24.58;;;15.48;;
41446;SDS011;27185;52.040;4.490;2024-01-11T16:05:13;22.73;;;14.50;;
41446;SDS011;27185;52.040;4.490;2024-01-11T16:07:59;24.77;;;14.77;;
41446;SDS011;27185;52.040;4.490;2024-01-11T16:10:44;26.55;;;15.50;;
41446;SDS011;27185;52.040;4.490;2024-01-11T16:13:30;23.05;;;15.15;;
41446;SDS011;27185;52.040;4.490;2024-01-11T16:16:16;25.05;;;14.63;;
41446;SDS011;27185;52.040;4.490;2024-01-11T16:19:01;25.83;;;15.38;;
41446;SDS011;27185;52.040;4.490;2024-01-11T16:21:47;24.15;;;15.13;;
41446;SDS011;27185;52.040;4.490;2024-01-11T16:24:33;23.30;;;14.00;;